sensor_id;sensor_type;location;lat;lon;timestamp;pressure;altitude;pressure_sealevel;temperature;humidity
11041;BME280;5573;49.592;8.662;2023-11-22T00:01:26;100413.59;;;3.76;94.50
11041;BME280;5573;49.592;8.662;2023-11-22T00:03:54;100470.72;;;4.11;93.69
11041;BME280;5573;49.592;8.662;2023-11-22T00:06:22;100473.50;;;4.10;94.62
11041;BME280;5573;49.592;8.662;2023-11-22T00:08:50;100468.44;;;3.90;95.78
11041;BME280;5573;49.592;8.662;2023-11-22T00:11:19;100484.97;;;4.01;98.71
11041;BME280;5573;49.592;8.662;2023-11-22T00:13:47;100486.56;;;3.94;97.31
11041;BME280;5573;49.592;8.662;2023-11-22T00:16:16;100488.69;;;3.90;99.40
11041;BME280;5573;49.592;8.662;2023-11-22T00:18:44;100490.72;;;3.78;99.21
11041;BME280;5573;49.592;8.662;2023-11-22T00:21:12;100486.03;;;3.72;99.90
11041;BME280;5573;49.592;8.662;2023-11-22T00:23:40;100490.84;;;3.59;97.49
11041;BME280;5573;49.592;8.662;2023-11-22T00:26:09;100489.50;;;3.55;96.69
11041;BME280;5573;49.592;8.662;2023-11-22T00:28:42;100500.78;;;3.48;97.97
11041;BME280;5573;49.592;8.662;2023-11-22T00:31:09;100496.63;;;3.27;99.15
11041;BME280;5573;49.592;8.662;2023-11-22T00:33:38;100507.34;;;3.16;100.00
11041;BME280;5573;49.592;8.662;2023-11-22T00:36:06;100516.22;;;3.15;100.00
11041;BME280;5573;49.592;8.662;2023-11-22T00:38:35;100520.03;;;2.93;100.00
11041;BME280;5573;49.592;8.662;2023-11-22T00:41:04;100525.56;;;3.00;100.00
11041;BME280;5573;49.592;8.662;2023-11-22T00:43:32;100518.19;;;3.04;100.00
11041;BME280;5573;49.592;8.662;2023-11-22T00:46:01;100523.16;;;3.07;98.71
11041;BME280;5573;49.592;8.662;2023-11-22T00:48:29;100525.66;;;3.08;98.47
11041;BME280;5573;49.592;8.662;2023-11-22T00:50:57;100526.31;;;3.20;99.26
11041;BME280;5573;49.592;8.662;2023-11-22T00:53:26;100535.84;;;3.21;98.86
11041;BME280;5573;49.592;8.662;2023-11-22T00:55:54;100537.94;;;3.17;100.00
11041;BME280;5573;49.592;8.662;2023-11-22T00:58:23;100536.31;;;3.07;100.00
11041;BME280;5573;49.592;8.662;2023-11-22T01:00:51;100541.84;;;3.13;100.00
11041;BME280;5573;49.592;8.662;2023-11-22T01:03:22;100536.97;;;3.18;100.00
11041;BME280;5573;49.592;8.662;2023-11-22T01:05:50;100544.66;;;3.02;100.00
11041;BME280;5573;49.592;8.662;2023-11-22T01:08:18;100542.34;;;2.89;100.00
11041;BME280;5573;49.592;8.662;2023-11-22T01:10:46;100553.31;;;2.85;100.00
11041;BME280;5573;49.592;8.662;2023-11-22T01:13:14;100551.38;;;2.77;100.00
11041;BME280;5573;49.592;8.662;2023-11-22T01:15:42;100550.91;;;2.91;100.00
11041;BME280;5573;49.592;8.662;2023-11-22T01:18:11;100556.34;;;2.80;100.00
11041;BME280;5573;49.592;8.662;2023-11-22T01:20:40;100553.59;;;2.72;100.00
11041;BME280;5573;49.592;8.662;2023-11-22T01:23:08;100552.00;;;2.52;100.00
11041;BME280;5573;49.592;8.662;2023-11-22T01:25:36;100553.94;;;2.50;100.00
11041;BME280;5573;49.592;8.662;2023-11-22T01:28:04;100548.53;;;2.42;100.00
11041;BME280;5573;49.592;8.662;2023-11-22T01:30:33;100539.44;;;2.27;100.00
11041;BME280;5573;49.592;8.662;2023-11-22T01:33:01;100536.38;;;2.31;100.00
11041;BME280;5573;49.592;8.662;2023-11-22T01:35:29;100543.72;;;2.09;100.00
11041;BME280;5573;49.592;8.662;2023-11-22T01:37:58;100558.53;;;2.10;100.00
11041;BME280;5573;49.592;8.662;2023-11-22T01:40:26;100551.06;;;2.05;100.00
11041;BME280;5573;49.592;8.662;2023-11-22T01:42:55;100547.88;;;2.02;100.00
11041;BME280;5573;49.592;8.662;2023-11-22T01:45:23;100553.41;;;2.18;99.42
11041;BME280;5573;49.592;8.662;2023-11-22T01:47:51;100555.09;;;2.19;97.90
11041;BME280;5573;49.592;8.662;2023-11-22T01:50:20;100560.88;;;2.22;96.45
11041;BME280;5573;49.592;8.662;2023-11-22T01:52:48;100567.94;;;2.12;96.48
11041;BME280;5573;49.592;8.662;2023-11-22T01:55:17;100569.59;;;2.13;94.74
11041;BME280;5573;49.592;8.662;2023-11-22T01:57:45;100567.66;;;1.96;96.87
11041;BME280;5573;49.592;8.662;2023-11-22T02:00:13;100576.94;;;2.10;94.37
11041;BME280;5573;49.592;8.662;2023-11-22T02:02:43;100582.44;;;2.16;90.87
11041;BME280;5573;49.592;8.662;2023-11-22T02:05:11;100570.84;;;2.09;94.30
11041;BME280;5573;49.592;8.662;2023-11-22T02:07:39;100572.78;;;1.88;96.14
11041;BME280;5573;49.592;8.662;2023-11-22T02:10:09;100575.63;;;1.75;98.39
11041;BME280;5573;49.592;8.662;2023-11-22T02:12:38;100576.06;;;1.71;97.86
11041;BME280;5573;49.592;8.662;2023-11-22T02:15:07;100581.84;;;1.55;98.39
11041;BME280;5573;49.592;8.662;2023-11-22T02:17:35;100586.75;;;1.39;98.86
11041;BME280;5573;49.592;8.662;2023-11-22T02:20:04;100588.44;;;1.50;96.18
11041;BME280;5573;49.592;8.662;2023-11-22T02:22:44;100598.53;;;1.44;98.16
11041;BME280;5573;49.592;8.662;2023-11-22T02:25:13;100611.22;;;1.39;98.82
11041;BME280;5573;49.592;8.662;2023-11-22T02:27:43;100624.44;;;1.28;98.77
11041;BME280;5573;49.592;8.662;2023-11-22T02:30:11;100626.19;;;1.18;98.67
11041;BME280;5573;49.592;8.662;2023-11-22T02:32:39;100628.84;;;1.28;98.75
11041;BME280;5573;49.592;8.662;2023-11-22T02:35:07;100627.41;;;1.14;98.43
11041;BME280;5573;49.592;8.662;2023-11-22T02:37:35;100650.88;;;1.16;98.11
11041;BME280;5573;49.592;8.662;2023-11-22T02:40:06;100652.44;;;1.18;98.30
11041;BME280;5573;49.592;8.662;2023-11-22T02:42:36;100664.09;;;1.35;95.82
11041;BME280;5573;49.592;8.662;2023-11-22T02:45:05;100633.78;;;1.01;96.79
11041;BME280;5573;49.592;8.662;2023-11-22T02:47:34;100657.28;;;1.02;98.09
11041;BME280;5573;49.592;8.662;2023-11-22T02:50:04;100651.03;;;0.93;99.35
11041;BME280;5573;49.592;8.662;2023-11-22T02:52:32;100646.38;;;0.76;100.00
11041;BME280;5573;49.592;8.662;2023-11-22T02:55:00;100641.66;;;0.70;100.00
11041;BME280;5573;49.592;8.662;2023-11-22T02:57:28;100644.06;;;0.62;100.00
11041;BME280;5573;49.592;8.662;2023-11-22T02:59:57;100653.66;;;0.52;100.00
11041;BME280;5573;49.592;8.662;2023-11-22T03:02:26;100641.03;;;0.46;100.00
11041;BME280;5573;49.592;8.662;2023-11-22T03:04:54;100645.13;;;0.39;100.00
11041;BME280;5573;49.592;8.662;2023-11-22T03:07:22;100644.41;;;0.37;100.00
11041;BME280;5573;49.592;8.662;2023-11-22T03:09:50;100645.84;;;0.30;100.00
11041;BME280;5573;49.592;8.662;2023-11-22T03:12:19;100644.56;;;0.24;100.00
11041;BME280;5573;49.592;8.662;2023-11-22T03:14:47;100638.75;;;0.21;100.00
11041;BME280;5573;49.592;8.662;2023-11-22T03:17:17;100642.56;;;0.17;100.00
11041;BME280;5573;49.592;8.662;2023-11-22T03:19:45;100651.13;;;0.19;100.00
11041;BME280;5573;49.592;8.662;2023-11-22T03:22:13;100652.72;;;0.10;100.00
11041;BME280;5573;49.592;8.662;2023-11-22T03:24:40;100657.34;;;0.18;100.00
11041;BME280;5573;49.592;8.662;2023-11-22T03:27:09;100662.13;;;0.13;100.00
11041;BME280;5573;49.592;8.662;2023-11-22T03:29:37;100673.53;;;0.12;100.00
11041;BME280;5573;49.592;8.662;2023-11-22T03:32:06;100685.03;;;-0.01;100.00
11041;BME280;5573;49.592;8.662;2023-11-22T03:34:35;100689.41;;;0.10;100.00
11041;BME280;5573;49.592;8.662;2023-11-22T03:37:04;100684.63;;;0.04;100.00
11041;BME280;5573;49.592;8.662;2023-11-22T03:39:32;100690.22;;;0.11;100.00
11041;BME280;5573;49.592;8.662;2023-11-22T03:42:00;100694.63;;;0.10;100.00
11041;BME280;5573;49.592;8.662;2023-11-22T03:44:28;100697.88;;;0.03;100.00
11041;BME280;5573;49.592;8.662;2023-11-22T03:46:57;100706.53;;;0.14;100.00
11041;BME280;5573;49.592;8.662;2023-11-22T03:49:25;100715.47;;;0.00;100.00
11041;BME280;5573;49.592;8.662;2023-11-22T03:51:54;100713.94;;;-0.13;100.00
11041;BME280;5573;49.592;8.662;2023-11-22T03:54:22;100725.00;;;-0.10;100.00
11041;BME280;5573;49.592;8.662;2023-11-22T03:56:51;100658.31;;;-0.48;100.00
11041;BME280;5573;49.592;8.662;2023-11-22T03:59:19;100723.72;;;-0.15;100.00
11041;BME280;5573;49.592;8.662;2023-11-22T04:01:47;100724.66;;;-0.16;100.00
11041;BME280;5573;49.592;8.662;2023-11-22T04:04:14;100732.28;;;-0.24;100.00
11041;BME280;5573;49.592;8.662;2023-11-22T04:06:42;100738.84;;;-0.30;100.00
11041;BME280;5573;49.592;8.662;2023-11-22T04:09:12;100738.94;;;-0.31;100.00
11041;BME280;5573;49.592;8.662;2023-11-22T04:11:40;100733.22;;;-0.36;100.00
11041;BME280;5573;49.592;8.662;2023-11-22T04:14:08;100757.16;;;-0.30;100.00
11041;BME280;5573;49.592;8.662;2023-11-22T04:16:37;100754.75;;;-0.33;100.00
11041;BME280;5573;49.592;8.662;2023-11-22T04:19:05;100753.81;;;-0.43;100.00
11041;BME280;5573;49.592;8.662;2023-11-22T04:21:33;100756.66;;;-0.46;100.00
11041;BME280;5573;49.592;8.662;2023-11-22T04:24:01;100763.78;;;-0.59;100.00
11041;BME280;5573;49.592;8.662;2023-11-22T04:26:31;100774.47;;;-0.62;100.00
11041;BME280;5573;49.592;8.662;2023-11-22T04:28:59;100779.72;;;-0.62;100.00
11041;BME280;5573;49.592;8.662;2023-11-22T04:31:27;100794.94;;;-0.67;100.00
11041;BME280;5573;49.592;8.662;2023-11-22T04:33:55;100791.59;;;-0.69;100.00
11041;BME280;5573;49.592;8.662;2023-11-22T04:36:24;100793.41;;;-0.59;100.00
11041;BME280;5573;49.592;8.662;2023-11-22T04:38:52;100798.97;;;-0.63;100.00
11041;BME280;5573;49.592;8.662;2023-11-22T04:41:20;100801.59;;;-0.52;100.00
11041;BME280;5573;49.592;8.662;2023-11-22T04:43:50;100796.63;;;-0.55;100.00
11041;BME280;5573;49.592;8.662;2023-11-22T04:46:19;100799.97;;;-0.53;100.00
11041;BME280;5573;49.592;8.662;2023-11-22T04:48:46;100799.69;;;-0.61;100.00
11041;BME280;5573;49.592;8.662;2023-11-22T04:51:18;100803.13;;;-0.72;100.00
11041;BME280;5573;49.592;8.662;2023-11-22T04:53:46;100809.66;;;-0.66;100.00
11041;BME280;5573;49.592;8.662;2023-11-22T04:56:14;100802.13;;;-0.82;100.00
11041;BME280;5573;49.592;8.662;2023-11-22T04:58:43;100817.47;;;-0.77;100.00
11041;BME280;5573;49.592;8.662;2023-11-22T05:01:12;100808.69;;;-0.76;100.00
11041;BME280;5573;49.592;8.662;2023-11-22T05:03:44;100813.63;;;-0.61;100.00
11041;BME280;5573;49.592;8.662;2023-11-22T05:06:12;100807.81;;;-0.53;100.00
11041;BME280;5573;49.592;8.662;2023-11-22T05:08:40;100811.59;;;-0.68;100.00
11041;BME280;5573;49.592;8.662;2023-11-22T05:11:08;100820.13;;;-0.66;100.00
11041;BME280;5573;49.592;8.662;2023-11-22T05:13:36;100823.22;;;-0.72;100.00
11041;BME280;5573;49.592;8.662;2023-11-22T05:16:05;100829.09;;;-0.58;100.00
11041;BME280;5573;49.592;8.662;2023-11-22T05:18:34;100825.91;;;-0.50;100.00
11041;BME280;5573;49.592;8.662;2023-11-22T05:21:03;100828.28;;;-0.47;100.00
11041;BME280;5573;49.592;8.662;2023-11-22T05:23:31;100823.75;;;-0.56;100.00
11041;BME280;5573;49.592;8.662;2023-11-22T05:26:00;100824.59;;;-0.44;100.00
11041;BME280;5573;49.592;8.662;2023-11-22T05:28:28;100824.72;;;-0.46;100.00
11041;BME280;5573;49.592;8.662;2023-11-22T05:30:55;100824.59;;;-0.44;100.00
11041;BME280;5573;49.592;8.662;2023-11-22T05:33:24;100832.59;;;-0.35;98.42
11041;BME280;5573;49.592;8.662;2023-11-22T05:35:53;100841.66;;;-0.28;96.98
11041;BME280;5573;49.592;8.662;2023-11-22T05:38:21;100846.38;;;-0.33;97.36
11041;BME280;5573;49.592;8.662;2023-11-22T05:40:49;100843.75;;;-0.44;98.65
11041;BME280;5573;49.592;8.662;2023-11-22T05:43:17;100853.75;;;-0.49;98.92
11041;BME280;5573;49.592;8.662;2023-11-22T05:45:51;100859.41;;;-0.55;98.08
11041;BME280;5573;49.592;8.662;2023-11-22T05:48:19;100879.19;;;-0.51;99.15
11041;BME280;5573;49.592;8.662;2023-11-22T05:50:48;100857.88;;;-0.58;98.50
11041;BME280;5573;49.592;8.662;2023-11-22T05:53:17;100893.59;;;-0.45;97.53
11041;BME280;5573;49.592;8.662;2023-11-22T05:55:46;100891.44;;;-0.52;97.80
11041;BME280;5573;49.592;8.662;2023-11-22T05:58:15;100890.22;;;-0.59;98.48
11041;BME280;5573;49.592;8.662;2023-11-22T06:00:43;100890.53;;;-0.63;98.79
11041;BME280;5573;49.592;8.662;2023-11-22T06:03:11;100892.41;;;-0.76;99.18
11041;BME280;5573;49.592;8.662;2023-11-22T06:05:39;100892.00;;;-0.59;98.47
11041;BME280;5573;49.592;8.662;2023-11-22T06:08:07;100890.72;;;-0.54;97.86
11041;BME280;5573;49.592;8.662;2023-11-22T06:10:37;100879.50;;;-0.56;97.10
11041;BME280;5573;49.592;8.662;2023-11-22T06:13:08;100884.28;;;-0.61;97.18
11041;BME280;5573;49.592;8.662;2023-11-22T06:15:37;100892.06;;;-0.72;97.56
11041;BME280;5573;49.592;8.662;2023-11-22T06:18:04;100898.56;;;-0.77;98.28
11041;BME280;5573;49.592;8.662;2023-11-22T06:20:32;100899.13;;;-0.61;97.50
11041;BME280;5573;49.592;8.662;2023-11-22T06:23:01;100914.97;;;-0.52;95.56
11041;BME280;5573;49.592;8.662;2023-11-22T06:25:28;100907.88;;;-0.50;96.50
11041;BME280;5573;49.592;8.662;2023-11-22T06:27:57;100919.66;;;-0.44;97.06
11041;BME280;5573;49.592;8.662;2023-11-22T06:30:26;100918.91;;;-0.57;97.23
11041;BME280;5573;49.592;8.662;2023-11-22T06:32:54;100923.38;;;-0.59;97.37
11041;BME280;5573;49.592;8.662;2023-11-22T06:35:22;100936.41;;;-0.70;97.77
11041;BME280;5573;49.592;8.662;2023-11-22T06:37:50;100937.16;;;-0.68;96.45
11041;BME280;5573;49.592;8.662;2023-11-22T06:40:18;100935.88;;;-0.63;94.14
11041;BME280;5573;49.592;8.662;2023-11-22T06:42:47;100941.31;;;-0.66;96.49
11041;BME280;5573;49.592;8.662;2023-11-22T06:45:16;100935.47;;;-0.69;94.36
11041;BME280;5573;49.592;8.662;2023-11-22T06:47:43;100945.94;;;-0.69;95.28
11041;BME280;5573;49.592;8.662;2023-11-22T06:50:12;100961.41;;;-0.66;95.31
11041;BME280;5573;49.592;8.662;2023-11-22T06:52:41;100962.78;;;-0.61;94.40
11041;BME280;5573;49.592;8.662;2023-11-22T06:55:10;100952.81;;;-0.79;93.51
11041;BME280;5573;49.592;8.662;2023-11-22T06:57:38;100964.31;;;-0.82;94.92
11041;BME280;5573;49.592;8.662;2023-11-22T07:00:06;100949.78;;;-0.86;96.24
11041;BME280;5573;49.592;8.662;2023-11-22T07:02:37;100960.41;;;-0.76;94.31
11041;BME280;5573;49.592;8.662;2023-11-22T07:05:06;100958.75;;;-0.77;94.62
11041;BME280;5573;49.592;8.662;2023-11-22T07:07:35;100959.66;;;-0.89;95.59
11041;BME280;5573;49.592;8.662;2023-11-22T07:10:04;100926.38;;;-1.24;94.70
11041;BME280;5573;49.592;8.662;2023-11-22T07:12:32;100971.59;;;-0.98;95.08
11041;BME280;5573;49.592;8.662;2023-11-22T07:15:01;100967.69;;;-0.92;95.17
11041;BME280;5573;49.592;8.662;2023-11-22T07:17:29;100980.75;;;-0.92;94.69
11041;BME280;5573;49.592;8.662;2023-11-22T07:19:59;100982.22;;;-0.88;94.37
11041;BME280;5573;49.592;8.662;2023-11-22T07:22:27;100994.59;;;-0.90;93.13
11041;BME280;5573;49.592;8.662;2023-11-22T07:24:57;100989.19;;;-0.76;91.88
11041;BME280;5573;49.592;8.662;2023-11-22T07:27:29;100992.97;;;-0.80;94.18
11041;BME280;5573;49.592;8.662;2023-11-22T07:29:57;100994.13;;;-0.84;94.31
11041;BME280;5573;49.592;8.662;2023-11-22T07:32:25;100988.59;;;-0.92;95.70
11041;BME280;5573;49.592;8.662;2023-11-22T07:34:52;100987.03;;;-0.82;95.61
11041;BME280;5573;49.592;8.662;2023-11-22T07:37:23;100978.66;;;-0.87;95.23
11041;BME280;5573;49.592;8.662;2023-11-22T07:39:51;100987.03;;;-0.82;94.74
11041;BME280;5573;49.592;8.662;2023-11-22T07:42:20;100984.28;;;-0.81;92.86
11041;BME280;5573;49.592;8.662;2023-11-22T07:44:48;100988.38;;;-0.53;90.39
11041;BME280;5573;49.592;8.662;2023-11-22T07:47:22;100978.94;;;-0.56;91.40
11041;BME280;5573;49.592;8.662;2023-11-22T07:49:50;100985.63;;;-0.52;89.71
11041;BME280;5573;49.592;8.662;2023-11-22T07:52:18;100990.81;;;-0.39;90.90
11041;BME280;5573;49.592;8.662;2023-11-22T07:54:47;100994.34;;;-0.27;89.19
11041;BME280;5573;49.592;8.662;2023-11-22T07:57:16;100994.38;;;-0.16;92.13
11041;BME280;5573;49.592;8.662;2023-11-22T07:59:46;100990.72;;;-0.03;92.19
11041;BME280;5573;49.592;8.662;2023-11-22T08:02:14;100987.31;;;0.19;93.36
11041;BME280;5573;49.592;8.662;2023-11-22T08:04:45;100994.59;;;0.27;93.30
11041;BME280;5573;49.592;8.662;2023-11-22T08:07:14;100996.53;;;0.36;93.60
11041;BME280;5573;49.592;8.662;2023-11-22T08:09:43;100967.22;;;0.31;89.82
11041;BME280;5573;49.592;8.662;2023-11-22T08:12:12;100981.78;;;0.46;87.84
11041;BME280;5573;49.592;8.662;2023-11-22T08:14:40;100982.13;;;0.64;84.78
11041;BME280;5573;49.592;8.662;2023-11-22T08:17:10;100983.56;;;0.79;85.43
11041;BME280;5573;49.592;8.662;2023-11-22T08:19:40;100987.28;;;0.76;85.06
11041;BME280;5573;49.592;8.662;2023-11-22T08:22:08;100994.06;;;0.90;89.35
11041;BME280;5573;49.592;8.662;2023-11-22T08:24:36;101003.34;;;1.05;90.88
11041;BME280;5573;49.592;8.662;2023-11-22T08:27:04;101006.81;;;1.17;86.20
11041;BME280;5573;49.592;8.662;2023-11-22T08:29:35;101010.75;;;1.22;84.69
11041;BME280;5573;49.592;8.662;2023-11-22T08:32:04;101011.34;;;1.26;84.67
11041;BME280;5573;49.592;8.662;2023-11-22T08:34:33;101023.84;;;1.33;82.28
11041;BME280;5573;49.592;8.662;2023-11-22T08:37:01;101024.44;;;1.37;87.29
11041;BME280;5573;49.592;8.662;2023-11-22T08:39:28;101024.78;;;1.43;89.25
11041;BME280;5573;49.592;8.662;2023-11-22T08:41:56;101023.44;;;1.49;86.02
11041;BME280;5573;49.592;8.662;2023-11-22T08:44:24;101016.88;;;1.55;87.54
11041;BME280;5573;49.592;8.662;2023-11-22T08:46:54;101027.22;;;1.67;81.52
11041;BME280;5573;49.592;8.662;2023-11-22T08:49:21;101029.84;;;1.67;83.89
11041;BME280;5573;49.592;8.662;2023-11-22T08:51:49;101019.31;;;1.78;83.27
11041;BME280;5573;49.592;8.662;2023-11-22T08:54:17;101018.25;;;1.70;78.63
11041;BME280;5573;49.592;8.662;2023-11-22T08:56:45;101019.22;;;1.69;74.44
11041;BME280;5573;49.592;8.662;2023-11-22T08:59:13;101024.38;;;1.59;75.31
11041;BME280;5573;49.592;8.662;2023-11-22T09:01:43;101013.53;;;1.53;79.13
11041;BME280;5573;49.592;8.662;2023-11-22T09:04:13;101023.81;;;1.44;81.77
11041;BME280;5573;49.592;8.662;2023-11-22T09:06:42;101022.63;;;1.49;76.85
11041;BME280;5573;49.592;8.662;2023-11-22T09:09:09;101020.75;;;1.71;80.63
11041;BME280;5573;49.592;8.662;2023-11-22T09:11:42;101034.50;;;1.75;79.62
11041;BME280;5573;49.592;8.662;2023-11-22T09:14:09;101035.56;;;1.72;77.29
11041;BME280;5573;49.592;8.662;2023-11-22T09:16:37;101040.66;;;1.85;77.29
11041;BME280;5573;49.592;8.662;2023-11-22T09:19:06;101041.41;;;2.08;78.82
11041;BME280;5573;49.592;8.662;2023-11-22T09:21:35;101049.53;;;2.05;71.85
11041;BME280;5573;49.592;8.662;2023-11-22T09:24:03;101049.03;;;2.11;75.27
11041;BME280;5573;49.592;8.662;2023-11-22T09:26:32;101047.25;;;2.11;75.73
11041;BME280;5573;49.592;8.662;2023-11-22T09:29:00;101046.97;;;2.14;77.83
11041;BME280;5573;49.592;8.662;2023-11-22T09:31:28;101037.00;;;2.08;73.65
11041;BME280;5573;49.592;8.662;2023-11-22T09:33:56;100990.25;;;1.59;76.12
11041;BME280;5573;49.592;8.662;2023-11-22T09:36:24;101033.41;;;1.77;74.48
11041;BME280;5573;49.592;8.662;2023-11-22T09:38:55;101032.09;;;1.72;76.87
11041;BME280;5573;49.592;8.662;2023-11-22T09:41:23;101043.91;;;1.77;77.36
11041;BME280;5573;49.592;8.662;2023-11-22T09:43:53;101044.44;;;1.92;74.17
11041;BME280;5573;49.592;8.662;2023-11-22T09:46:22;101053.84;;;2.26;75.78
11041;BME280;5573;49.592;8.662;2023-11-22T09:48:51;101045.44;;;2.53;73.60
11041;BME280;5573;49.592;8.662;2023-11-22T09:51:23;101056.09;;;2.52;74.94
11041;BME280;5573;49.592;8.662;2023-11-22T09:53:55;101064.06;;;2.40;73.97
11041;BME280;5573;49.592;8.662;2023-11-22T09:56:27;101050.59;;;2.55;74.17
11041;BME280;5573;49.592;8.662;2023-11-22T09:58:57;101043.34;;;2.47;73.32
11041;BME280;5573;49.592;8.662;2023-11-22T10:01:28;101071.09;;;2.61;73.93
11041;BME280;5573;49.592;8.662;2023-11-22T10:03:59;101037.38;;;2.45;75.23
11041;BME280;5573;49.592;8.662;2023-11-22T10:06:27;101071.28;;;2.69;73.10
11041;BME280;5573;49.592;8.662;2023-11-22T10:09:00;101067.09;;;2.87;73.08
11041;BME280;5573;49.592;8.662;2023-11-22T10:11:30;101054.66;;;2.89;73.74
11041;BME280;5573;49.592;8.662;2023-11-22T10:13:58;101053.03;;;2.98;71.88
11041;BME280;5573;49.592;8.662;2023-11-22T10:16:26;101050.88;;;3.12;72.16
11041;BME280;5573;49.592;8.662;2023-11-22T10:18:53;101054.41;;;3.02;72.14
11041;BME280;5573;49.592;8.662;2023-11-22T10:21:22;101064.66;;;2.95;73.47
11041;BME280;5573;49.592;8.662;2023-11-22T10:23:53;101061.06;;;2.96;70.95
11041;BME280;5573;49.592;8.662;2023-11-22T10:26:23;101067.84;;;2.99;71.71
11041;BME280;5573;49.592;8.662;2023-11-22T10:28:53;101067.16;;;2.97;72.34
11041;BME280;5573;49.592;8.662;2023-11-22T10:31:22;101079.03;;;2.91;73.56
11041;BME280;5573;49.592;8.662;2023-11-22T10:33:50;101083.03;;;2.85;74.13
11041;BME280;5573;49.592;8.662;2023-11-22T10:36:19;101096.50;;;2.92;71.70
11041;BME280;5573;49.592;8.662;2023-11-22T10:38:47;101094.88;;;3.01;73.82
11041;BME280;5573;49.592;8.662;2023-11-22T10:41:19;101097.72;;;3.09;72.55
11041;BME280;5573;49.592;8.662;2023-11-22T10:43:52;101103.94;;;3.08;70.04
11041;BME280;5573;49.592;8.662;2023-11-22T10:46:27;101100.63;;;3.15;72.92
11041;BME280;5573;49.592;8.662;2023-11-22T10:48:57;101102.16;;;3.18;73.20
11041;BME280;5573;49.592;8.662;2023-11-22T10:51:30;101103.19;;;3.26;72.18
11041;BME280;5573;49.592;8.662;2023-11-22T10:53:59;101110.72;;;3.40;71.29
11041;BME280;5573;49.592;8.662;2023-11-22T10:56:28;101101.88;;;3.51;72.94
11041;BME280;5573;49.592;8.662;2023-11-22T10:59:02;101103.81;;;3.49;71.79
11041;BME280;5573;49.592;8.662;2023-11-22T11:01:31;101099.41;;;3.69;67.96
11041;BME280;5573;49.592;8.662;2023-11-22T11:04:01;101110.38;;;3.64;70.47
11041;BME280;5573;49.592;8.662;2023-11-22T11:06:34;101118.13;;;3.56;67.01
11041;BME280;5573;49.592;8.662;2023-11-22T11:09:04;101116.34;;;3.66;68.68
11041;BME280;5573;49.592;8.662;2023-11-22T11:11:34;101135.63;;;3.67;72.09
11041;BME280;5573;49.592;8.662;2023-11-22T11:14:05;101128.66;;;3.56;65.66
11041;BME280;5573;49.592;8.662;2023-11-22T11:16:37;101119.88;;;3.86;67.66
11041;BME280;5573;49.592;8.662;2023-11-22T11:19:08;101124.63;;;4.02;66.77
11041;BME280;5573;49.592;8.662;2023-11-22T11:21:38;101105.16;;;4.03;61.89
11041;BME280;5573;49.592;8.662;2023-11-22T11:24:06;101131.84;;;4.09;65.36
11041;BME280;5573;49.592;8.662;2023-11-22T11:26:34;101127.94;;;4.13;66.27
11041;BME280;5573;49.592;8.662;2023-11-22T11:29:04;101133.38;;;4.21;66.31
11041;BME280;5573;49.592;8.662;2023-11-22T11:31:38;101123.50;;;4.33;66.21
11041;BME280;5573;49.592;8.662;2023-11-22T11:34:07;101139.09;;;4.46;65.38
11041;BME280;5573;49.592;8.662;2023-11-22T11:36:37;101139.34;;;4.33;64.25
11041;BME280;5573;49.592;8.662;2023-11-22T11:39:06;101138.22;;;4.07;65.32
11041;BME280;5573;49.592;8.662;2023-11-22T11:41:38;101139.91;;;4.36;63.95
11041;BME280;5573;49.592;8.662;2023-11-22T11:44:08;101132.69;;;4.19;64.96
11041;BME280;5573;49.592;8.662;2023-11-22T11:46:38;101137.91;;;3.90;63.63
11041;BME280;5573;49.592;8.662;2023-11-22T11:49:07;101148.03;;;3.85;66.16
11041;BME280;5573;49.592;8.662;2023-11-22T11:51:35;101148.00;;;3.76;67.90
11041;BME280;5573;49.592;8.662;2023-11-22T11:54:05;101152.84;;;3.80;67.92
11041;BME280;5573;49.592;8.662;2023-11-22T11:56:33;101147.75;;;3.88;68.24
11041;BME280;5573;49.592;8.662;2023-11-22T11:59:02;101160.94;;;3.88;64.65
11041;BME280;5573;49.592;8.662;2023-11-22T12:01:31;101165.91;;;3.82;66.49
11041;BME280;5573;49.592;8.662;2023-11-22T12:04:00;101176.34;;;3.93;65.97
11041;BME280;5573;49.592;8.662;2023-11-22T12:06:28;101168.28;;;3.95;66.53
11041;BME280;5573;49.592;8.662;2023-11-22T12:08:57;101105.81;;;3.66;64.73
11041;BME280;5573;49.592;8.662;2023-11-22T12:11:25;101155.41;;;4.01;65.05
11041;BME280;5573;49.592;8.662;2023-11-22T12:13:54;101151.13;;;4.10;65.25
11041;BME280;5573;49.592;8.662;2023-11-22T12:16:23;101143.75;;;4.04;66.13
11041;BME280;5573;49.592;8.662;2023-11-22T12:18:52;101146.13;;;3.97;67.43
11041;BME280;5573;49.592;8.662;2023-11-22T12:21:20;101146.34;;;3.84;66.23
11041;BME280;5573;49.592;8.662;2023-11-22T12:23:48;101145.09;;;3.79;65.96
11041;BME280;5573;49.592;8.662;2023-11-22T12:26:19;101148.41;;;3.81;66.83
11041;BME280;5573;49.592;8.662;2023-11-22T12:28:49;101132.97;;;3.57;66.57
11041;BME280;5573;49.592;8.662;2023-11-22T12:31:31;101131.31;;;3.66;66.68
11041;BME280;5573;49.592;8.662;2023-11-22T12:34:04;101113.97;;;3.63;65.90
11041;BME280;5573;49.592;8.662;2023-11-22T12:36:33;101116.06;;;3.60;67.54
11041;BME280;5573;49.592;8.662;2023-11-22T12:39:03;101108.00;;;3.61;66.53
11041;BME280;5573;49.592;8.662;2023-11-22T12:41:34;101098.66;;;3.38;65.13
11041;BME280;5573;49.592;8.662;2023-11-22T12:44:04;101101.13;;;3.39;67.39
11041;BME280;5573;49.592;8.662;2023-11-22T12:46:47;101087.56;;;3.44;66.40
11041;BME280;5573;49.592;8.662;2023-11-22T12:49:20;101114.94;;;3.53;66.37
11041;BME280;5573;49.592;8.662;2023-11-22T12:51:49;101102.78;;;3.31;66.17
11041;BME280;5573;49.592;8.662;2023-11-22T12:54:17;101105.84;;;3.36;66.20
11041;BME280;5573;49.592;8.662;2023-11-22T12:56:48;101116.66;;;3.42;65.82
11041;BME280;5573;49.592;8.662;2023-11-22T12:59:24;101123.97;;;3.69;65.12
11041;BME280;5573;49.592;8.662;2023-11-22T13:01:54;101129.06;;;3.61;67.34
11041;BME280;5573;49.592;8.662;2023-11-22T13:04:25;101120.31;;;3.51;67.03
11041;BME280;5573;49.592;8.662;2023-11-22T13:06:55;101136.59;;;3.66;64.31
11041;BME280;5573;49.592;8.662;2023-11-22T13:09:24;101134.50;;;3.69;67.41
11041;BME280;5573;49.592;8.662;2023-11-22T13:11:52;101138.94;;;3.69;68.18
11041;BME280;5573;49.592;8.662;2023-11-22T13:14:20;101138.25;;;3.67;66.82